Startpagina
METAR-TAF:

METAR-TAF

Vliegvelden :

Vlissingen, Nederland

breedte: 51-27N, lengte: 3-36E, hoogte: 10 m

Actueel weer

Dit bericht is 16 minuten geleden gemaakt, om 18:55 UTC
Wind 15 kt uit het westnoordwesten met uitschieters tot 26 kt, variërend tussen het westen en het noordwesten
Temperatuur 9°C
Vochtigheid 66%
Druk 1021 hPa
Zicht 10 km of meer

METAR: EHFS 231855Z AUTO 29015G26KT 260V320 9999 NSC 09/03 Q1021

Tijdstip: 20:11 (19:11 UTC)


TAF: ontbreekt

Waarnemingen en weersverwachtingen van meer dan 4000 vliegvelden (METAR en TAF).

De beschikbare stations zijn de gele en rode punten op de kaart.

Ga met uw muis naar het station om de naam te zien.

Klik dan om waarnemingen en weersverwachtingen te zien.

kaart wijzigen: klik op de groene knoppen met een zwart kruis om in te zoomen, op de groene knop met een streepje om uit te zoomen of op de groene pijlen voor aangrenzende kaarten.


METAR-TAF: